Sheldon Creek, Vermont
Current Conditions -  °F | °C
As of 5:55 PM on Tuesday 21 Oct 2014 (Local Time) from KFSO Reporting Station
Light Rain Light Rain  
Wind Chill: 45°   Ceiling: 2800
Heat Index: 47°   Visibility: 7mi
Dew Point: 46°   Wind: 6mph
Humidity: 95%   Direction: 10°N
Pressure: 30.04"   Gusts: NA
Location:  44.8776°N, 72.9201°W
Report Text: KFSO 212155Z AUTO 01005KT 7SM -RA SCT008 BKN028 OVC043 09/08 A3004 RMK AO2 T00850078
Loading
Personal Weather Stations






























Interactive Weather Map
Tropical Storm Tracking
New forecast layout! Learn more

10-Day Weather Forecast

Advertisements
Track Severe Weather on mobile